createdAt,value
2019-04-20T00:02:59.684Z,13.30
2019-04-20T00:08:09.182Z,13.30
2019-04-20T00:13:20.991Z,13.20
2019-04-20T00:18:15.032Z,13.10
2019-04-20T00:23:33.477Z,13.00
2019-04-20T00:28:50.855Z,12.90
2019-04-20T00:33:51.293Z,12.80
2019-04-20T00:38:50.910Z,12.70
2019-04-20T00:43:49.213Z,12.60
2019-04-20T00:49:01.652Z,12.70
2019-04-20T00:54:00.238Z,12.60
2019-04-20T00:59:16.802Z,12.60
2019-04-20T01:04:34.248Z,12.50
2019-04-20T01:09:30.874Z,12.50
2019-04-20T01:14:43.459Z,12.50
2019-04-20T01:19:40.503Z,12.40
2019-04-20T01:24:47.828Z,12.40
2019-04-20T01:30:00.571Z,12.30
2019-04-20T01:35:12.111Z,12.20
2019-04-20T01:40:04.050Z,12.20
2019-04-20T01:45:14.513Z,12.10
2019-04-20T01:50:16.670Z,12.10
2019-04-20T01:55:43.985Z,12.10
2019-04-20T02:00:42.122Z,12.00
2019-04-20T02:05:53.108Z,12.00
2019-04-20T02:10:57.066Z,11.90
2019-04-20T02:16:04.248Z,11.80
2019-04-20T02:21:22.333Z,11.60
2019-04-20T02:26:09.220Z,11.50
2019-04-20T02:36:51.187Z,11.50
2019-04-20T02:41:57.887Z,11.40
2019-04-20T02:47:07.539Z,11.30
2019-04-20T02:52:33.629Z,11.20
2019-04-20T02:57:33.528Z,11.10
2019-04-20T03:02:06.264Z,10.90
2019-04-20T03:07:09.261Z,10.90
2019-04-20T03:12:23.854Z,10.80
2019-04-20T03:17:31.080Z,10.80
2019-04-20T03:22:39.718Z,10.90
2019-04-20T03:27:38.149Z,10.80
2019-04-20T03:33:08.480Z,10.60
2019-04-20T03:37:52.505Z,10.50
2019-04-20T03:42:37.122Z,10.50
2019-04-20T03:47:54.440Z,10.50
2019-04-20T03:53:13.958Z,10.50
2019-04-20T03:58:18.524Z,10.40
2019-04-20T04:03:35.044Z,10.40
2019-04-20T04:08:21.215Z,10.40
2019-04-20T04:13:20.795Z,10.40
2019-04-20T04:18:31.789Z,10.40
2019-04-20T04:23:56.099Z,10.40
2019-04-20T04:28:47.546Z,10.40
2019-04-20T04:34:16.466Z,10.30
2019-04-20T04:39:08.687Z,10.10
2019-04-20T04:44:09.674Z,9.90
2019-04-20T04:49:06.804Z,9.90
2019-04-20T04:54:16.599Z,9.90
2019-04-20T04:59:10.616Z,9.80
2019-04-20T05:04:34.780Z,9.80
2019-04-20T05:09:22.102Z,9.80
2019-04-20T05:14:38.719Z,9.90
2019-04-20T05:19:54.092Z,9.80
2019-04-20T05:25:02.321Z,9.80
2019-04-20T05:29:44.688Z,9.90
2019-04-20T05:35:10.934Z,10.10
2019-04-20T05:40:20.561Z,10.20
2019-04-20T05:45:19.692Z,10.40
2019-04-20T05:50:29.279Z,10.50
2019-04-20T05:55:37.456Z,10.60
2019-04-20T06:00:40.213Z,10.80
2019-04-20T06:05:55.149Z,11.00
2019-04-20T06:10:50.615Z,11.20
2019-04-20T06:15:53.682Z,11.40
2019-04-20T06:21:15.829Z,11.60
2019-04-20T06:26:40.037Z,11.90
2019-04-20T06:31:22.698Z,12.20
2019-04-20T06:36:30.672Z,12.30
2019-04-20T06:41:46.568Z,12.50
2019-04-20T06:46:36.360Z,12.50
2019-04-20T06:52:00.454Z,12.70
2019-04-20T06:57:00.195Z,12.90
2019-04-20T07:02:11.982Z,13.10
2019-04-20T07:07:15.708Z,13.30
2019-04-20T07:12:16.797Z,13.60
2019-04-20T07:17:39.356Z,13.80
2019-04-20T07:22:40.740Z,13.90
2019-04-20T07:27:41.566Z,14.10
2019-04-20T07:32:53.773Z,14.40
2019-04-20T07:43:08.140Z,15.20
2019-04-20T07:53:01.527Z,16.40
2019-04-20T07:58:09.839Z,17.10
2019-04-20T08:03:35.172Z,17.90
2019-04-20T08:08:34.830Z,18.90
2019-04-20T08:13:45.757Z,19.80
2019-04-20T08:18:51.618Z,20.70
2019-04-20T08:23:52.154Z,21.30
2019-04-20T08:28:51.254Z,21.70
2019-04-20T08:34:28.264Z,22.20
2019-04-20T08:44:42.856Z,22.70
2019-04-20T08:49:29.534Z,23.10
2019-04-20T08:54:26.721Z,23.50
2019-04-20T08:59:16.826Z,23.70
2019-04-20T09:04:35.963Z,24.20
2019-04-20T09:09:49.458Z,24.40
2019-04-20T09:14:36.105Z,24.50
2019-04-20T09:19:46.982Z,24.60
2019-04-20T09:25:14.749Z,24.80
2019-04-20T09:30:04.581Z,25.00
2019-04-20T09:35:13.744Z,25.50
2019-04-20T09:40:23.887Z,25.70
2019-04-20T09:45:23.454Z,25.90
2019-04-20T09:50:38.771Z,26.10
2019-04-20T09:55:37.835Z,26.30
2019-04-20T10:01:00.801Z,26.40
2019-04-20T10:05:49.641Z,26.60
2019-04-20T10:10:54.365Z,26.80
2019-04-20T10:15:59.726Z,26.80
2019-04-20T10:21:05.374Z,26.80
2019-04-20T10:26:09.519Z,27.00
2019-04-20T10:31:14.525Z,27.10
2019-04-20T10:36:23.638Z,27.30
2019-04-20T10:41:37.024Z,27.60
2019-04-20T10:46:35.063Z,27.80
2019-04-20T10:51:45.027Z,27.90
2019-04-20T10:56:49.779Z,27.90
2019-04-20T11:02:21.924Z,28.00
2019-04-20T11:07:26.449Z,28.20
2019-04-20T11:12:30.536Z,28.20
2019-04-20T11:17:35.350Z,28.20
2019-04-20T11:22:40.173Z,28.20
2019-04-20T11:27:44.369Z,28.30
2019-04-20T11:32:48.444Z,28.20
2019-04-20T11:37:55.432Z,28.30
2019-04-20T11:42:59.660Z,28.50
2019-04-20T11:48:03.733Z,28.70
2019-04-20T11:53:08.951Z,28.60
2019-04-20T11:58:14.220Z,28.60
2019-04-20T12:03:28.214Z,28.40
2019-04-20T12:08:25.506Z,28.20
2019-04-20T12:13:30.873Z,28.00
2019-04-20T12:18:35.868Z,27.80
2019-04-20T12:23:40.358Z,27.40
2019-04-20T12:28:45.413Z,27.20
2019-04-20T12:33:50.541Z,27.00
2019-04-20T12:38:55.025Z,26.90
2019-04-20T12:43:59.546Z,26.70
2019-04-20T12:49:03.779Z,26.70
2019-04-20T12:54:08.858Z,26.50
2019-04-20T12:59:13.783Z,26.40
2019-04-20T13:04:18.480Z,26.30
2019-04-20T13:09:22.980Z,26.10
2019-04-20T13:14:50.694Z,26.10
2019-04-20T13:19:55.390Z,26.10
2019-04-20T13:24:59.413Z,26.10
2019-04-20T13:30:04.848Z,25.80
2019-04-20T13:35:10.055Z,25.60
2019-04-20T13:40:15.571Z,25.30
2019-04-20T13:45:21.269Z,25.20
2019-04-20T13:50:26.261Z,25.10
2019-04-20T13:55:30.262Z,24.80
2019-04-20T14:00:59.018Z,24.70
2019-04-20T14:06:04.658Z,24.80
2019-04-20T14:11:11.371Z,24.70
2019-04-20T14:16:16.763Z,24.50
2019-04-20T14:21:21.029Z,24.40
2019-04-20T14:26:25.227Z,24.50
2019-04-20T14:31:30.025Z,24.60
2019-04-20T14:36:34.934Z,24.50
2019-04-20T14:41:40.362Z,24.40
2019-04-20T14:46:45.511Z,24.30
2019-04-20T14:51:49.960Z,24.00
2019-04-20T14:56:54.145Z,23.90
2019-04-20T15:02:06.501Z,23.80
2019-04-20T15:07:11.012Z,23.70
2019-04-20T15:12:16.992Z,23.70
2019-04-20T15:17:25.853Z,23.80
2019-04-20T15:22:31.672Z,23.70
2019-04-20T15:27:37.276Z,23.70
2019-04-20T15:32:42.988Z,23.70
2019-04-20T15:37:47.270Z,23.60
2019-04-20T15:42:58.965Z,23.40
2019-04-20T15:47:58.141Z,23.20
2019-04-20T15:53:05.860Z,23.00
2019-04-20T15:58:10.335Z,22.90
2019-04-20T16:03:17.221Z,22.80
2019-04-20T16:08:30.132Z,22.70
2019-04-20T16:13:39.511Z,22.50
2019-04-20T16:18:41.084Z,22.30
2019-04-20T16:23:48.426Z,22.10
2019-04-20T16:28:53.511Z,21.90
2019-04-20T16:33:58.785Z,21.70
2019-04-20T16:39:03.701Z,21.50
2019-04-20T16:44:09.205Z,21.40
2019-04-20T16:49:13.340Z,21.20
2019-04-20T16:54:17.601Z,21.10
2019-04-20T16:59:22.548Z,21.00
2019-04-20T17:04:28.379Z,20.80
2019-04-20T17:09:33.635Z,20.70
2019-04-20T17:14:37.860Z,20.60
2019-04-20T17:19:41.916Z,20.50
2019-04-20T17:24:46.985Z,20.30
2019-04-20T17:29:52.899Z,20.30
2019-04-20T17:35:10.541Z,20.10
2019-04-20T17:40:26.722Z,20.00
2019-04-20T17:45:14.026Z,19.90
2019-04-20T17:50:30.355Z,19.80
2019-04-20T17:55:40.855Z,19.60
2019-04-20T18:00:45.620Z,19.50
2019-04-20T18:06:08.345Z,19.40
2019-04-20T18:11:03.223Z,19.30
2019-04-20T18:16:28.404Z,19.20
2019-04-20T18:21:16.900Z,19.10
2019-04-20T18:26:39.336Z,19.10
2019-04-20T18:31:29.218Z,19.00
2019-04-20T18:36:52.769Z,18.90
2019-04-20T18:42:10.073Z,18.80
2019-04-20T18:47:30.459Z,18.70
2019-04-20T18:52:11.607Z,18.60
2019-04-20T18:57:21.790Z,18.50
2019-04-20T19:02:27.002Z,18.50
2019-04-20T19:07:27.967Z,18.30
2019-04-20T19:12:46.131Z,18.20
2019-04-20T19:17:58.997Z,18.10
2019-04-20T19:22:54.019Z,17.90
2019-04-20T19:28:00.956Z,17.80
2019-04-20T19:33:24.616Z,17.70
2019-04-20T19:39:26.218Z,17.60
2019-04-20T19:44:26.777Z,17.40
2019-04-20T19:50:11.004Z,17.30
2019-04-20T19:55:14.328Z,17.20
2019-04-20T20:00:02.537Z,17.10
2019-04-20T20:05:11.682Z,17.00
2019-04-20T20:10:14.646Z,16.90
2019-04-20T20:15:26.201Z,16.80
2019-04-20T20:20:50.049Z,16.70
2019-04-20T20:25:37.309Z,16.50
2019-04-20T20:30:49.822Z,16.40
2019-04-20T20:35:52.975Z,16.30
2019-04-20T20:41:02.963Z,16.20
2019-04-20T20:46:05.039Z,16.10
2019-04-20T20:51:14.757Z,16.00
2019-04-20T20:56:15.011Z,15.90
2019-04-20T21:01:18.457Z,15.70
2019-04-20T21:06:18.899Z,15.40
2019-04-20T21:11:27.227Z,15.30
2019-04-20T21:16:33.048Z,15.20
2019-04-20T21:21:46.320Z,15.00
2019-04-20T21:26:42.743Z,15.00
2019-04-20T21:31:57.062Z,15.00
2019-04-20T21:36:55.304Z,15.00
2019-04-20T21:42:04.660Z,15.00
2019-04-20T21:47:03.501Z,15.00
2019-04-20T21:52:20.866Z,14.90
2019-04-20T21:57:15.023Z,14.80
2019-04-20T22:02:25.238Z,14.70
2019-04-20T22:07:26.179Z,14.70
2019-04-20T22:12:39.890Z,14.60
2019-04-20T22:17:37.445Z,14.50
2019-04-20T22:22:57.236Z,14.30
2019-04-20T22:27:48.285Z,14.30
2019-04-20T22:32:55.277Z,14.30
2019-04-20T22:38:13.825Z,14.10
2019-04-20T22:43:18.000Z,14.00
2019-04-20T22:48:21.319Z,14.00
2019-04-20T22:53:42.780Z,14.00
2019-04-20T22:58:46.025Z,13.80
2019-04-20T23:03:36.838Z,13.60
2019-04-20T23:08:40.832Z,13.50
2019-04-20T23:13:48.303Z,13.30
2019-04-20T23:18:51.935Z,13.20
2019-04-20T23:24:01.573Z,13.20
2019-04-20T23:29:02.692Z,13.20
2019-04-20T23:34:12.823Z,13.20
2019-04-20T23:39:13.044Z,13.20
2019-04-20T23:44:27.474Z,13.00
2019-04-20T23:49:53.548Z,12.90
2019-04-20T23:54:50.249Z,12.80
2019-04-20T23:59:46.281Z,12.80
